Time;durP1;ratioP1;P1;durP2;ratioP2;P2;SDS_P1;SDS_P2;PMS_P1;PMS_P2;Temp;Humidity;BMP_temperature;BMP_pressure;BME280_temperature;BME280_humidity;BME280_pressure;Samples;Min_cycle;Max_cycle;Signal;HPM_P1;HPM_P2
2021/11/11 08:41:35;;;;;;;4.87;3.33;;;;;;;2.27;97.49;99706.31;5182127;27;1514729;-76
2021/11/11 08:44:05;;;;;;;5.87;3.83;;;;;;;2.77;99.08;99691.56;5192343;27;39780;-78
2021/11/11 08:46:33;;;;;;;8.10;5.33;;;;;;;3.28;97.00;99701.94;5193152;27;41497;-76
2021/11/11 08:49:01;;;;;;;6.50;4.50;;;;;;;3.67;93.75;99708.13;5192615;27;43532;-76
2021/11/11 08:51:29;;;;;;;6.53;4.40;;;;;;;3.97;89.96;99707.47;5192837;27;42087;-75
2021/11/11 08:53:56;;;;;;;5.80;3.67;;;;;;;4.21;87.92;99714.75;5189925;27;38900;-76
2021/11/11 08:56:24;;;;;;;4.93;4.30;;;;;;;4.40;86.19;99717.84;5185951;27;41744;-75
2021/11/11 08:58:53;;;;;;;8.77;4.37;;;;;;;4.57;84.48;99717.44;5175458;27;42783;-76
2021/11/11 09:01:20;;;;;;;6.53;4.60;;;;;;;4.61;82.56;99717.31;5173290;27;42125;-77
2021/11/11 09:03:48;;;;;;;6.13;4.20;;;;;;;4.68;81.92;99713.66;5175380;27;39713;-76
2021/11/11 09:06:15;;;;;;;4.90;3.77;;;;;;;4.80;81.27;99709.84;5173536;27;42001;-75
2021/11/11 09:08:43;;;;;;;6.33;3.87;;;;;;;4.90;80.65;99710.47;5192220;27;42593;-75
2021/11/11 09:11:11;;;;;;;5.07;3.57;;;;;;;5.05;80.09;99710.06;5190797;27;42130;-75
2021/11/11 09:13:39;;;;;;;5.57;3.53;;;;;;;5.15;79.47;99711.56;5170925;27;39016;-76
2021/11/11 09:16:08;;;;;;;6.97;4.40;;;;;;;5.25;78.68;99720.91;5170877;27;41687;-76
2021/11/11 09:18:35;;;;;;;6.67;3.13;;;;;;;5.36;78.39;99724.09;5152926;27;42174;-76
2021/11/11 09:21:05;;;;;;;4.17;2.97;;;;;;;5.48;77.85;99722.03;5199237;27;42281;-76
2021/11/11 09:23:33;;;;;;;5.57;4.23;;;;;;;5.61;77.22;99728.66;5174397;27;39039;-75
2021/11/11 09:26:01;;;;;;;5.97;3.90;;;;;;;5.68;76.53;99730.22;5210160;27;41715;-76
2021/11/11 09:28:29;;;;;;;7.23;4.90;;;;;;;5.68;76.29;99714.44;5191454;27;41865;-75
2021/11/11 09:30:57;;;;;;;6.33;4.13;;;;;;;5.79;75.89;99730.78;5185856;27;41409;-76
2021/11/11 09:33:26;;;;;;;5.43;3.33;;;;;;;5.73;75.76;99712.53;5188432;27;40168;-76
2021/11/11 09:35:55;;;;;;;6.33;3.43;;;;;;;5.82;75.18;99711.41;5192017;27;41631;-77
2021/11/11 09:38:25;;;;;;;5.17;3.60;;;;;;;5.92;74.95;99721.66;5174032;27;42891;-76
2021/11/11 09:40:53;;;;;;;4.50;3.17;;;;;;;6.00;74.67;99727.53;5158694;27;41359;-76
2021/11/11 09:43:20;;;;;;;4.53;3.27;;;;;;;6.06;73.93;99729.97;5153193;27;38807;-76
2021/11/11 09:45:48;;;;;;;5.93;4.13;;;;;;;6.10;74.03;99733.38;5170630;27;41455;-76
2021/11/11 09:48:18;;;;;;;5.93;3.60;;;;;;;6.14;74.22;99737.63;5170268;27;43583;-76
2021/11/11 09:50:48;;;;;;;6.47;3.37;;;;;;;6.22;74.06;99751.41;5197751;27;42257;-76
2021/11/11 09:53:21;;;;;;;4.70;3.47;;;;;;;6.25;73.45;99753.94;5176763;27;39885;-76
2021/11/11 09:58:38;;;;;;;7.43;4.50;;;;;;;6.31;72.37;99760.78;5193304;27;42726;-76
2021/11/11 10:01:07;;;;;;;6.33;3.83;;;;;;;6.33;71.82;99766.84;5140342;27;41803;-76
2021/11/11 10:03:41;;;;;;;6.27;4.03;;;;;;;6.32;72.21;99765.13;5156260;27;40689;-78
2021/11/11 10:06:10;;;;;;;5.63;3.83;;;;;;;6.21;72.17;99746.19;5139522;27;40989;-80
2021/11/11 10:08:42;;;;;;;5.87;4.47;;;;;;;6.35;72.13;99775.56;5175229;27;43641;-80
2021/11/11 10:11:12;;;;;;;6.73;4.23;;;;;;;6.35;71.75;99776.44;5156473;27;42200;-79
2021/11/11 10:13:40;;;;;;;4.93;3.73;;;;;;;6.38;72.27;99775.47;5167496;27;40807;-80
2021/11/11 10:16:12;;;;;;;6.43;4.20;;;;;;;6.47;72.55;99769.91;5177409;27;41849;-77
2021/11/11 10:18:46;;;;;;;5.23;3.30;;;;;;;6.57;72.53;99766.09;5160272;27;41951;-80
2021/11/11 10:21:42;;;;;;;7.90;5.00;;;;;;;6.67;72.19;99774.56;5157796;27;43418;-82
2021/11/11 10:24:30;;;;;;;6.10;3.83;;;;;;;6.74;71.60;99774.31;5154621;27;39941;-78
2021/11/11 10:27:03;;;;;;;7.10;4.37;;;;;;;6.73;70.96;99772.59;5165621;27;41731;-82
2021/11/11 10:29:38;;;;;;;7.37;4.63;;;;;;;6.72;70.89;99760.34;5159879;27;42760;-80
2021/11/11 10:32:10;;;;;;;7.60;4.60;;;;;;;6.91;70.48;99780.81;5177498;27;43121;-82
2021/11/11 10:34:47;;;;;;;6.90;4.30;;;;;;;6.97;70.89;99775.31;5178007;27;39957;-80
2021/11/11 10:37:17;;;;;;;9.63;5.60;;;;;;;7.00;70.26;99778.72;5159517;27;41700;-81
2021/11/11 10:39:51;;;;;;;6.57;3.70;;;;;;;7.10;70.52;99785.41;5156560;27;43081;-78
2021/11/11 10:42:22;;;;;;;8.23;4.90;;;;;;;7.04;70.17;99750.53;5173711;27;42212;-81
2021/11/11 10:44:55;;;;;;;7.37;4.63;;;;;;;7.22;69.69;99770.97;5156751;27;39807;-79
2021/11/11 10:47:27;;;;;;;8.20;4.90;;;;;;;7.30;69.64;99773.31;5138853;27;41922;-80
2021/11/11 10:49:56;;;;;;;5.87;4.17;;;;;;;7.20;69.46;99749.06;5138737;27;41928;-82
2021/11/11 10:52:41;;;;;;;7.57;4.97;;;;;;;7.37;69.07;99767.78;5155813;27;42365;-82
2021/11/11 10:55:18;;;;;;;8.10;5.27;;;;;;;7.41;68.95;99766.78;5153200;27;38845;-82
2021/11/11 10:57:59;;;;;;;6.27;5.00;;;;;;;7.30;68.89;99750.47;5146423;27;41519;-83
2021/11/11 11:00:37;;;;;;;8.27;5.13;;;;;;;7.42;69.21;99757.06;5138855;27;41841;-80
2021/11/11 11:03:07;;;;;;;7.30;4.53;;;;;;;7.49;69.14;99746.28;5173926;27;43024;-81
2021/11/11 11:05:41;;;;;;;5.13;4.17;;;;;;;7.58;68.71;99764.41;5158535;27;38919;-85
2021/11/11 11:08:12;;;;;;;9.17;4.80;;;;;;;7.65;68.71;99748.38;5159650;27;41477;-82
2021/11/11 11:10:43;;;;;;;7.60;4.53;;;;;;;7.77;68.74;99745.28;5171851;27;43747;-81
2021/11/11 11:13:14;;;;;;;7.03;5.10;;;;;;;7.74;68.09;99732.22;5155066;27;42436;-81
2021/11/11 11:15:46;;;;;;;8.37;5.20;;;;;;;7.92;68.47;99747.34;5139030;27;39002;-81
2021/11/11 11:18:14;;;;;;;9.23;6.07;;;;;;;8.04;68.47;99735.44;5138213;27;40574;-80
2021/11/11 11:20:43;;;;;;;9.67;5.47;;;;;;;8.15;68.11;99730.66;5188491;27;43028;-85
2021/11/11 11:23:29;;;;;;;9.37;5.57;;;;;;;8.26;67.58;99736.38;5177004;27;42180;-80
2021/11/11 11:26:01;;;;;;;12.10;5.97;;;;;;;8.29;67.35;99712.47;5160623;27;39547;-81
2021/11/11 11:29:00;;;;;;;10.73;6.67;;;;;;;8.35;66.20;99724.63;5138170;27;41932;-79
2021/11/11 11:31:35;;;;;;;12.70;6.83;;;;;;;8.48;66.70;99721.44;5138351;27;41626;-80
2021/11/11 11:34:08;;;;;;;14.90;6.60;;;;;;;8.27;66.92;99670.34;5164413;27;41911;-81
2021/11/11 11:36:41;;;;;;;9.60;6.03;;;;;;;8.60;65.96;99715.66;5176323;27;40036;-81
2021/11/11 11:39:14;;;;;;;12.33;7.10;;;;;;;8.61;65.87;99721.81;5159073;27;42442;-82
2021/11/11 11:41:44;;;;;;;13.93;6.33;;;;;;;8.44;65.51;99689.94;5158504;27;41812;-81
2021/11/11 11:44:22;;;;;;;11.57;5.73;;;;;;;8.72;65.65;99719.56;5168572;27;42218;-82
2021/11/11 11:47:02;;;;;;;9.30;5.53;;;;;;;8.80;65.79;99717.47;5173549;27;39805;-78
2021/11/11 11:49:29;;;;;;;10.77;6.47;;;;;;;8.87;65.82;99713.66;5173621;27;41824;-78
2021/11/11 11:51:57;;;;;;;11.33;7.63;;;;;;;9.00;65.52;99714.88;5138327;27;41694;-78
2021/11/11 11:54:33;;;;;;;13.87;7.13;;;;;;;9.13;65.47;99714.34;5137215;27;42141;-81
2021/11/11 11:57:05;;;;;;;13.03;6.60;;;;;;;9.20;64.87;99718.44;5155139;27;39804;-77
2021/11/11 11:59:35;;;;;;;11.57;6.70;;;;;;;9.12;64.86;99705.56;5173730;27;41780;-79
2021/11/11 12:05:06;;;;;;;15.27;8.53;;;;;;;9.24;64.09;99717.38;5133724;27;41127;-78
2021/11/11 12:10:36;;;;;;;9.50;6.70;;;;;;;9.18;63.99;99704.41;5134922;27;41984;-81
2021/11/11 12:34:11;;;;;;;11.33;6.70;;;;;;;9.07;63.94;99693.44;5175105;27;40712;-82
2021/11/11 12:41:18;;;;;;;11.97;6.33;;;;;;;9.08;64.84;99689.88;5153490;27;40017;-83
2021/11/11 12:44:12;;;;;;;14.63;6.93;;;;;;;9.08;64.75;99690.75;5162177;27;40582;-81
2021/11/11 12:46:46;;;;;;;12.13;7.07;;;;;;;8.97;64.42;99678.00;5193654;27;42592;-82
2021/11/11 12:49:25;;;;;;;14.27;6.80;;;;;;;8.91;64.63;99667.69;5174842;27;42448;-82
2021/11/11 12:52:22;;;;;;;14.50;7.53;;;;;;;8.95;64.39;99690.41;5175293;27;39957;-83
2021/11/11 12:54:51;;;;;;;11.27;6.80;;;;;;;8.91;64.35;99687.94;5162291;27;40693;-81
2021/11/11 12:57:21;;;;;;;10.93;6.60;;;;;;;8.92;64.30;99677.31;5136904;27;42693;-83
2021/11/11 12:59:50;;;;;;;10.20;6.20;;;;;;;8.93;64.35;99670.25;5153743;27;43147;-84
2021/11/11 13:02:18;;;;;;;13.43;7.83;;;;;;;8.94;64.45;99686.06;5191342;27;40813;-84
2021/11/11 13:04:54;;;;;;;16.93;7.63;;;;;;;8.87;64.69;99676.69;5157144;27;40584;-82
2021/11/11 13:07:26;;;;;;;11.83;6.17;;;;;;;8.86;64.73;99685.53;5158686;27;43274;-80
2021/11/11 13:10:07;;;;;;;15.20;7.67;;;;;;;8.73;64.54;99657.06;5194146;27;43988;-83
2021/11/11 13:12:37;;;;;;;9.73;6.10;;;;;;;8.69;64.43;99656.31;5143990;27;39187;-81
2021/11/11 13:15:09;;;;;;;13.60;6.63;;;;;;;8.65;64.72;99645.00;5172263;27;42595;-79
2021/11/11 13:17:42;;;;;;;14.83;8.03;;;;;;;8.71;64.96;99664.19;5154486;27;42259;-79
2021/11/11 13:20:24;;;;;;;11.90;6.27;;;;;;;8.72;65.28;99656.19;5136326;27;41754;-80
2021/11/11 13:22:58;;;;;;;12.03;6.73;;;;;;;8.73;65.21;99657.91;5153895;27;39047;-79
2021/11/11 13:25:48;;;;;;;10.93;6.63;;;;;;;8.64;65.45;99642.47;5172063;27;41869;-81
2021/11/11 13:28:35;;;;;;;13.00;8.00;;;;;;;8.65;65.30;99650.28;5174099;27;43088;-81
2021/11/11 16:21:46;;;;;;;16.17;8.13;;;;;;;6.29;72.90;99639.84;5174765;27;42157;-78
2021/11/11 16:24:27;;;;;;;19.13;9.13;;;;;;;6.38;72.50;99654.47;5138731;27;39575;-81
2021/11/11 16:26:57;;;;;;;16.20;6.87;;;;;;;6.25;72.77;99632.94;5147441;27;40415;-82
2021/11/11 16:29:26;;;;;;;14.93;6.93;;;;;;;6.37;72.95;99656.22;5174127;27;42834;-79
2021/11/11 16:31:55;;;;;;;10.70;5.90;;;;;;;6.37;72.87;99666.75;5157967;27;41499;-80
2021/11/11 16:34:23;;;;;;;13.53;6.67;;;;;;;6.38;72.71;99670.25;5175607;27;40974;-78
2021/11/11 16:36:53;;;;;;;11.90;6.20;;;;;;;6.38;72.79;99664.97;5174811;27;41708;-82
2021/11/11 16:39:21;;;;;;;11.13;6.00;;;;;;;6.39;72.82;99666.69;5156296;27;42677;-82
2021/11/11 16:41:49;;;;;;;8.53;5.03;;;;;;;6.36;73.18;99661.53;5157788;27;42453;-81
2021/11/11 16:44:17;;;;;;;12.00;7.13;;;;;;;6.33;73.19;99664.25;5193123;27;39709;-81
2021/11/11 16:46:46;;;;;;;10.33;5.60;;;;;;;6.36;73.10;99674.69;5153298;27;40286;-82
2021/11/11 16:49:15;;;;;;;10.53;5.87;;;;;;;6.35;73.06;99675.59;5167660;27;41729;-81
2021/11/11 16:51:44;;;;;;;9.40;6.00;;;;;;;6.33;73.24;99682.66;5157497;27;42580;-79
2021/11/11 16:54:14;;;;;;;11.97;6.17;;;;;;;6.32;73.33;99680.94;5156385;27;38881;-79
2021/11/11 16:56:41;;;;;;;11.50;6.37;;;;;;;6.30;73.87;99688.06;5153785;27;40627;-82
2021/11/11 16:59:09;;;;;;;9.43;5.23;;;;;;;6.29;73.53;99683.69;5157064;27;42602;-80
2021/11/11 17:01:36;;;;;;;12.17;6.13;;;;;;;6.10;73.84;99660.59;5152097;27;41984;-83
2021/11/11 17:04:04;;;;;;;9.00;5.60;;;;;;;6.26;73.97;99691.69;5178259;27;40956;-80
2021/11/11 17:06:32;;;;;;;10.30;6.43;;;;;;;6.22;73.93;99701.44;5178484;27;40591;-81
2021/11/11 17:09:00;;;;;;;11.00;5.93;;;;;;;6.19;74.38;99695.41;5160366;27;41821;-77
2021/11/11 17:11:29;;;;;;;9.43;5.23;;;;;;;6.18;74.10;99698.97;5158708;27;41640;-80
2021/11/11 17:13:57;;;;;;;11.67;7.27;;;;;;;6.16;74.20;99696.38;5160441;27;39048;-79
2021/11/11 17:16:25;;;;;;;15.57;6.17;;;;;;;6.19;74.22;99704.16;5156805;27;42055;-81
2021/11/11 17:18:55;;;;;;;9.23;5.30;;;;;;;6.05;74.41;99673.03;5168193;27;42931;-82
2021/11/11 17:21:24;;;;;;;7.57;5.33;;;;;;;6.11;74.21;99688.63;5156854;27;41387;-83
2021/11/11 17:23:55;;;;;;;9.87;5.70;;;;;;;6.05;74.45;99678.31;5178233;27;40220;-84
2021/11/11 17:26:43;;;;;;;11.93;6.00;;;;;;;6.04;74.40;99692.34;5156622;27;41867;-81
2021/11/11 17:29:13;;;;;;;11.23;6.00;;;;;;;6.02;74.81;99698.56;5151970;27;42258;-79
2021/11/11 17:31:42;;;;;;;12.07;5.57;;;;;;;5.96;74.93;99699.59;5175210;27;43170;-79
2021/11/11 17:34:10;;;;;;;11.27;5.73;;;;;;;5.85;75.24;99685.03;5164683;27;40354;-83
2021/11/11 17:36:37;;;;;;;9.73;5.90;;;;;;;5.89;75.43;99692.81;5156739;27;40653;-77
2021/11/11 17:39:07;;;;;;;10.03;6.07;;;;;;;6.01;75.46;99720.50;5151316;27;42380;-82
2021/11/11 17:41:36;;;;;;;7.63;5.63;;;;;;;6.00;75.65;99714.38;5160254;27;41152;-82
2021/11/11 17:44:07;;;;;;;13.23;5.50;;;;;;;6.00;75.71;99719.63;5161314;27;39595;-81
2021/11/11 17:46:38;;;;;;;9.27;5.97;;;;;;;5.98;75.51;99716.19;5177963;27;40541;-80
2021/11/11 17:49:13;;;;;;;7.40;4.40;;;;;;;5.90;75.39;99705.06;5156615;27;44173;-80
2021/11/11 17:51:52;;;;;;;9.43;5.00;;;;;;;6.07;75.40;99733.44;5157327;27;42627;-80
2021/11/11 17:54:25;;;;;;;7.77;4.93;;;;;;;6.03;75.50;99727.44;5158920;27;39087;-81
2021/11/11 17:56:55;;;;;;;9.37;5.63;;;;;;;6.04;75.49;99723.91;5177383;27;41533;-78
2021/11/11 17:59:25;;;;;;;6.90;4.17;;;;;;;5.99;75.36;99715.28;5160062;27;41714;-80
2021/11/11 18:01:56;;;;;;;8.50;5.13;;;;;;;5.82;75.30;99693.84;5166728;27;41165;-77
2021/11/11 18:04:24;;;;;;;6.80;4.67;;;;;;;5.99;75.14;99712.66;5168832;27;40808;-84
2021/11/11 18:06:53;;;;;;;9.37;5.93;;;;;;;6.09;75.35;99727.25;5158679;27;44816;-79
2021/11/11 18:09:25;;;;;;;9.43;5.40;;;;;;;5.98;75.54;99712.69;5154712;27;42590;-77
2021/11/11 18:12:00;;;;;;;9.10;5.63;;;;;;;6.05;75.38;99732.66;5157006;27;42108;-78
2021/11/11 18:14:28;;;;;;;10.37;5.80;;;;;;;6.04;75.42;99729.16;5149717;27;39122;-78
2021/11/11 18:16:57;;;;;;;11.50;6.77;;;;;;;6.07;75.43;99725.56;5175323;27;42473;-79
2021/11/11 18:19:24;;;;;;;7.63;4.83;;;;;;;6.10;75.39;99726.34;5157272;27;42318;-78
2021/11/11 18:21:53;;;;;;;6.63;4.30;;;;;;;6.03;75.38;99706.41;5159126;27;42090;-79
